M I D A S
Marine Information and Data Acquisition System
Tripno 248 of the Zeeleeuw from 2002-04-23 06:45:35 to 2002-04-23 11:52:25
Back to CruiseResearch ActivitiesStationsMapUnderway DataData graphs

EquipmentUnitsComment
TimeDGPSUTC
LatitudeDGPSDM.mWGS84
LongitudeDGPSDM.mWGS84
HeadingGyrodeg 
SOGDGPSknotsSpeed over ground
COGDGPSdegCourse over ground
DepthEcho soundermeters200 kHz
Missing or incorrect values are displayed as -999
Navigation data collected by the RV Zeeleeuw from 2002-04-23 06:45:35 to 2002-04-23 11:52:25
                                                                                    Next 1000 lines
Time Latitude Longitude Heading SOG COG Depth
2002-04-23 06:45:41 51°13.688 2°55.906 129.5   196.5 9.1
2002-04-23 06:45:47 51°13.688 2°55.906 129.3   170.8 9
2002-04-23 06:45:52 51°13.689 2°55.906 128.8   152.1 9
2002-04-23 06:45:57 51°13.689 2°55.906 128.2   110.5 9.2
2002-04-23 06:46:02 51°13.689 2°55.906 127.3   143.6 9.2
2002-04-23 06:46:07 51°13.689 2°55.906 126.7 0.1 186.5 9.1
2002-04-23 06:46:12 51°13.689 2°55.906 126 0.1 203.9 8.9
2002-04-23 06:46:17 51°13.689 2°55.906 125.3 0.1 207 8.5
2002-04-23 06:46:22 51°13.688 2°55.906 124.7 0.1 205.9 8.6
2002-04-23 06:46:27 51°13.688 2°55.906 123.7 0.1 202.3 8.7
2002-04-23 06:46:32 51°13.688 2°55.906 123 0.1 199.4 8.7
2002-04-23 06:46:37 51°13.688 2°55.906 122.2 0.1 199.8 9
2002-04-23 06:46:41 51°13.688 2°55.906 121.3 0.1 201.8 9.2
2002-04-23 06:46:47 51°13.688 2°55.906 120.5 0.1 199.9 8.7
2002-04-23 06:46:52 51°13.688 2°55.906 119.7 0.1 198.1 9.1
2002-04-23 06:46:57 51°13.688 2°55.906 118.8 0.1 192.2 9.2
2002-04-23 06:47:01 51°13.688 2°55.906 117.8 0.1 197 9.1
2002-04-23 06:47:07 51°13.688 2°55.906 117 0.1 201.6 9
2002-04-23 06:47:12 51°13.688 2°55.906 116.2 0.1 202.9 8.8
2002-04-23 06:47:17 51°13.687 2°55.906 115.2 0.1 202.2 8.9
2002-04-23 06:47:22 51°13.687 2°55.905 114.3 0.1 201 9.2
2002-04-23 06:47:27 51°13.687 2°55.905 113.5 0.2 205.1 9.1
2002-04-23 06:47:31 51°13.687 2°55.905 112.7 0.1 207 8.9
2002-04-23 06:47:37 51°13.687 2°55.905 111.8 0.1 204.6 8.8
2002-04-23 06:47:42 51°13.687 2°55.905 111 0.1 207.3 8.8
2002-04-23 06:47:47 51°13.687 2°55.905 110.2 0.1 212 8.7
2002-04-23 06:47:52 51°13.687 2°55.905 109.3 0.1 213.2 9.2
2002-04-23 06:47:57 51°13.687 2°55.905 108.5 0.1 204.9 8.9
2002-04-23 06:48:02 51°13.686 2°55.905 107.8 0.1 200.4 8.7
2002-04-23 06:48:07 51°13.686 2°55.905 107 0.1 196.6 8.9
2002-04-23 06:48:12 51°13.686 2°55.905 106.2 0.1 198.8 8.9
2002-04-23 06:48:17 51°13.686 2°55.905 105.5 0.1 198.5 9.1
2002-04-23 06:48:22 51°13.686 2°55.905 104.8 0.1 196.3 9.1
2002-04-23 06:48:27 51°13.686 2°55.905 104.2 0.1 203.5 9.1
2002-04-23 06:48:32 51°13.686 2°55.905 103.5 0.1 219.3 9.2
2002-04-23 06:48:37 51°13.686 2°55.904 103.2 0.1 242.3 9.3
2002-04-23 06:48:41 51°13.686 2°55.904 102.7 0.1 267.2 9.2
2002-04-23 06:48:47 51°13.686 2°55.903 102 0.3 281.4 9.4
2002-04-23 06:48:52 51°13.686 2°55.901 101.5 0.7 278.2 9.4
2002-04-23 06:48:57 51°13.687 2°55.898 101.2 0.9 278.4 9.4
2002-04-23 06:49:01 51°13.687 2°55.896 100.8 1.3 280 8.5
2002-04-23 06:49:07 51°13.688 2°55.891 100.3 1.6 283.1 9.6
2002-04-23 06:49:13 51°13.689 2°55.886 99.7 2 282.3 -999
2002-04-23 06:49:18 51°13.689 2°55.88 98.8 2.2 280.8 -999
2002-04-23 06:49:23 51°13.69 2°55.874 97.5 2.5 278.4 -999
2002-04-23 06:49:28 51°13.69 2°55.868 96 2.6 276.8 -999
2002-04-23 06:49:33 51°13.691 2°55.862 94.5 2.8 275.3 -999
2002-04-23 06:49:37 51°13.691 2°55.857 93.2 2.9 274 -999
2002-04-23 06:49:43 51°13.691 2°55.848 91.8 3 272.2 -999
2002-04-23 06:49:47 51°13.691 2°55.843 90.7 3.1 270.4 -999
2002-04-23 06:49:53 51°13.691 2°55.834 89.8 3.2 269.5 -999
2002-04-23 06:49:58 51°13.691 2°55.827 89 3.2 269.4 -999
2002-04-23 06:50:03 51°13.691 2°55.82 88.2 3.3 267.8 -999
2002-04-23 06:50:08 51°13.69 2°55.813 87.7 3.3 266.7 -999
2002-04-23 06:50:12 51°13.69 2°55.807 87.2 3.3 265.2 -999
2002-04-23 06:50:18 51°13.69 2°55.799 86.3 3.2 264.9 -999
2002-04-23 06:50:23 51°13.689 2°55.792 85.3 3.2 264 -999
2002-04-23 06:50:28 51°13.689 2°55.785 84.3 3.1 262.9 -999
2002-04-23 06:50:32 51°13.688 2°55.78 83.8 3 262.2 -999
2002-04-23 06:50:37 51°13.688 2°55.774 83.7 3 262 14
2002-04-23 06:50:42 51°13.687 2°55.768 83.5 2.9 261.4 14.6
2002-04-23 06:50:47 51°13.686 2°55.761 83.5 2.9 260.3 14.8
2002-04-23 06:50:52 51°13.686 2°55.755 83.5 2.9 259.6 14.5
2002-04-23 06:50:57 51°13.685 2°55.75 83.2 2.8 259.2 14.5
2002-04-23 06:51:02 51°13.684 2°55.744 82.8 2.7 258.7 14.7
2002-04-23 06:51:07 51°13.684 2°55.739 82.7 2.6 258.7 14.7
2002-04-23 06:51:12 51°13.683 2°55.734 82.5 2.4 259.4 15
2002-04-23 06:51:17 51°13.683 2°55.731 81.7 2 259.2 12.9
2002-04-23 06:51:21 51°13.683 2°55.73 79 1.4 259.1 12.9
2002-04-23 06:51:27 51°13.683 2°55.73 73.2 0.3 281.9 13.2
2002-04-23 06:51:32 51°13.685 2°55.733 66.5 0.6 46.5 14.9
2002-04-23 06:51:37 51°13.687 2°55.737 56.3 1.7 50.8 14.7
2002-04-23 06:51:42 51°13.69 2°55.742 46.3 2.4 45.9 14.5
2002-04-23 06:51:47 51°13.694 2°55.745 36.3 2.9 38.2 14.8
2002-04-23 06:51:52 51°13.697 2°55.748 29.5 2.9 30 14.4
2002-04-23 06:51:57 51°13.7 2°55.75 25.3 2.7 25.7 14.8
2002-04-23 06:52:02 51°13.703 2°55.751 22.8 2.3 22.2 14.8
2002-04-23 06:52:07 51°13.704 2°55.752 19.3 1.7 21 14.7
2002-04-23 06:52:12 51°13.705 2°55.753 15.8 1.2 19.5 14.6
2002-04-23 06:52:17 51°13.705 2°55.753 13 0.4 23.3 14.7
2002-04-23 06:52:22 51°13.704 2°55.753 11.7 0.4 179.6 14.7
2002-04-23 06:52:27 51°13.703 2°55.753 10.8 0.8 186.3 14.9
2002-04-23 06:52:32 51°13.701 2°55.752 10.5 1.2 187.6 14.7
2002-04-23 06:52:38 51°13.698 2°55.752 10.2 1.7 188 -999
2002-04-23 06:52:43 51°13.695 2°55.751 10.2 1.9 188.4 -999
2002-04-23 06:52:48 51°13.692 2°55.75 10.2 2 188 -999
2002-04-23 06:52:53 51°13.69 2°55.75 10.3 1.9 188.5 -999
2002-04-23 06:52:58 51°13.687 2°55.749 10.3 1.9 188.2 -999
2002-04-23 06:53:03 51°13.684 2°55.748 10.3 2 189.1 -999
2002-04-23 06:53:07 51°13.682 2°55.748 10 2 189.4 -999
2002-04-23 06:53:12 51°13.68 2°55.747 9.3 1.9 190.6 -999
2002-04-23 06:53:17 51°13.678 2°55.746 8.3 1.8 191.7 14.2
2002-04-23 06:53:22 51°13.677 2°55.746 5.8 1.5 193.1 14.3
2002-04-23 06:53:27 51°13.678 2°55.745 0.8 0.3 235.7 14.5
2002-04-23 06:53:32 51°13.68 2°55.744 354.7 1.1 337 14.8
2002-04-23 06:53:37 51°13.684 2°55.742 348 1.8 340.6 14.6
2002-04-23 06:53:43 51°13.689 2°55.739 343.8 2.7 340.6 14.7
2002-04-23 06:53:47 51°13.692 2°55.737 341.7 3.2 339.2 13.9
2002-04-23 06:53:52 51°13.698 2°55.733 341.2 3.7 337.9 14.4
2002-04-23 06:53:57 51°13.703 2°55.729 340.8 4.1 337.6 14.3
2002-04-23 06:54:02 51°13.71 2°55.725 340.5 4.5 336.9 13.4
2002-04-23 06:54:07 51°13.716 2°55.72 340.2 5 336.8 12.6
2002-04-23 06:54:12 51°13.724 2°55.715 339.7 5.5 336.4 12
2002-04-23 06:54:17 51°13.732 2°55.709 339.3 5.9 336 11.4
2002-04-23 06:54:22 51°13.74 2°55.703 339.8 6.3 335.9 11.4
2002-04-23 06:54:27 51°13.749 2°55.697 340.3 6.6 336.1 11.4
2002-04-23 06:54:31 51°13.756 2°55.692 340.2 6.8 336.3 11.5
2002-04-23 06:54:37 51°13.767 2°55.684 339 7 336.2 11.7
2002-04-23 06:54:41 51°13.775 2°55.679 339 7.3 335.9 11.3
2002-04-23 06:54:47 51°13.786 2°55.671 339.7 7.5 336 11.8
2002-04-23 06:54:51 51°13.794 2°55.665 339.8 7.7 335.9 11.8
2002-04-23 06:54:57 51°13.806 2°55.657 339.3 7.8 335.9 11.8
2002-04-23 06:55:02 51°13.816 2°55.65 339.5 7.9 335.7 11.8
2002-04-23 06:55:07 51°13.827 2°55.643 339.7 8 336.3 11.8
2002-04-23 06:55:12 51°13.837 2°55.635 339 8.1 336.2 11.7
2002-04-23 06:55:17 51°13.847 2°55.628 338.8 8.1 335.9 11.6
2002-04-23 06:55:22 51°13.858 2°55.62 338.8 8.2 335.6 11.6
2002-04-23 06:55:27 51°13.868 2°55.613 339 8.2 335.4 11.3
2002-04-23 06:55:32 51°13.878 2°55.605 338.7 8.3 335.1 11.3
2002-04-23 06:55:37 51°13.889 2°55.597 338 8.3 334.8 11.5
2002-04-23 06:55:42 51°13.899 2°55.589 337.5 8.3 334.2 11.8
2002-04-23 06:55:47 51°13.91 2°55.581 338.3 8.4 334.2 11.8
2002-04-23 06:55:52 51°13.921 2°55.573 338.7 8.4 334.4 11.6
2002-04-23 06:55:57 51°13.932 2°55.565 338.5 8.5 335.2 11.5
2002-04-23 06:56:02 51°13.942 2°55.557 338.2 8.5 335 11.5
2002-04-23 06:56:07 51°13.953 2°55.549 338.3 8.5 335 11.6
2002-04-23 06:56:12 51°13.964 2°55.542 338.7 8.5 335.1 11.5
2002-04-23 06:56:17 51°13.974 2°55.534 338.8 8.6 335.3 11.8
2002-04-23 06:56:22 51°13.985 2°55.526 339 8.4 335.4 11.8
2002-04-23 06:56:27 51°13.995 2°55.519 339.2 8.2 335.8 12.3
2002-04-23 06:56:32 51°14.005 2°55.512 339.3 7.9 335.9 12.1
2002-04-23 06:56:37 51°14.014 2°55.505 338.7 7.6 335.6 12
2002-04-23 06:56:42 51°14.023 2°55.498 337.5 7.4 334.8 12.4
2002-04-23 06:56:47 51°14.031 2°55.491 336.7 7.1 333.5 12
2002-04-23 06:56:52 51°14.04 2°55.485 336.2 6.9 333.2 11.9
2002-04-23 06:56:57 51°14.048 2°55.478 336 6.7 333.3 12.3
2002-04-23 06:57:02 51°14.056 2°55.472 335.8 6.5 333.2 12.4
2002-04-23 06:57:07 51°14.064 2°55.466 336 6.4 333.3 12.5
2002-04-23 06:57:12 51°14.071 2°55.46 336.2 6.2 333.4 12.5
2002-04-23 06:57:17 51°14.079 2°55.454 336.5 6 333.4 12.5
2002-04-23 06:57:21 51°14.084 2°55.449 336.3 5.9 333.6 12.5
2002-04-23 06:57:27 51°14.093 2°55.443 336 5.8 333.4 12.6
2002-04-23 06:57:32 51°14.1 2°55.437 335.7 5.7 333.4 12.5
2002-04-23 06:57:37 51°14.107 2°55.431 335.2 5.7 333.5 12.5
2002-04-23 06:57:42 51°14.114 2°55.426 334.7 5.6 333.2 12.5
2002-04-23 06:57:47 51°14.121 2°55.42 334.5 5.7 332.5 12.5
2002-04-23 06:57:52 51°14.128 2°55.414 334.8 5.8 332.4 12.4
2002-04-23 06:57:57 51°14.135 2°55.408 335.2 5.9 332.5 12.5
2002-04-23 06:58:02 51°14.143 2°55.401 335.2 6 332.7 12.5
2002-04-23 06:58:07 51°14.151 2°55.395 334.8 6.3 332.2 12.5
2002-04-23 06:58:12 51°14.16 2°55.388 334.3 6.6 332.2 12.5
2002-04-23 06:58:17 51°14.168 2°55.38 333 6.8 331.3 12.4
2002-04-23 06:58:22 51°14.176 2°55.372 331.8 7 330.6 12.5
2002-04-23 06:58:27 51°14.185 2°55.363 330.2 7.2 329.4 12.6
2002-04-23 06:58:32 51°14.194 2°55.354 329.2 7.4 327.4 12.5
2002-04-23 06:58:37 51°14.203 2°55.344 327.3 7.7 325.6 12.5
2002-04-23 06:58:42 51°14.211 2°55.333 325.7 7.8 324.3 12.7
2002-04-23 06:58:47 51°14.22 2°55.322 324.2 7.9 322.8 12.4
2002-04-23 06:58:52 51°14.229 2°55.311 323.8 8.1 321.2 12.5
2002-04-23 06:58:57 51°14.238 2°55.299 322.8 8.2 320.8 12.5
2002-04-23 06:59:02 51°14.247 2°55.287 321.8 8.3 319.6 12.5
2002-04-23 06:59:07 51°14.255 2°55.274 319.7 8.4 317.7 12.3
2002-04-23 06:59:12 51°14.263 2°55.26 317.5 8.4 315.7 11.6
2002-04-23 06:59:17 51°14.271 2°55.246 315.5 8.5 313.6 11.9
2002-04-23 06:59:22 51°14.279 2°55.232 314.7 8.6 312.2 11.8
2002-04-23 06:59:27 51°14.287 2°55.217 314.3 8.6 311.2 12
2002-04-23 06:59:32 51°14.295 2°55.203 314.8 8.7 311.1 11.7
2002-04-23 06:59:37 51°14.303 2°55.188 315 8.9 311.6 11.4
2002-04-23 06:59:42 51°14.312 2°55.172 314.5 9.1 311.5 11.8
2002-04-23 06:59:47 51°14.32 2°55.156 313.5 9.3 311 11.7
2002-04-23 06:59:52 51°14.329 2°55.14 313.5 9.5 310.5 12.1
2002-04-23 06:59:57 51°14.337 2°55.124 313.8 9.7 310.5 11.7
2002-04-23 07:00:02 51°14.346 2°55.107 314.3 9.8 310.7 11.7
2002-04-23 07:00:07 51°14.356 2°55.091 315 9.9 311 11.7
2002-04-23 07:00:12 51°14.366 2°55.076 316.2 10 312.3 11.9
2002-04-23 07:00:17 51°14.376 2°55.06 318.5 10.2 315.4 11.9
2002-04-23 07:00:22 51°14.388 2°55.046 321 10.3 318.2 11.6
2002-04-23 07:00:27 51°14.4 2°55.032 322 10.5 321.3 11.6
2002-04-23 07:00:32 51°14.411 2°55.017 320.7 10.6 321.4 11.5
2002-04-23 07:00:37 51°14.42 2°54.999 312.7 10.6 317.8 11.5
2002-04-23 07:00:41 51°14.427 2°54.984 306 10.5 311.7 11.5
2002-04-23 07:00:47 51°14.435 2°54.959 299.3 10.5 306.3 11.4
2002-04-23 07:00:52 51°14.441 2°54.938 293.5 10.5 295.3 11.4
2002-04-23 07:00:57 51°14.445 2°54.915 287.7 10.5 290.3 11.5
2002-04-23 07:01:02 51°14.449 2°54.893 284.3 10.6 286.7 11.6
2002-04-23 07:01:07 51°14.451 2°54.869 279.7 10.7 282.2 11.6
2002-04-23 07:01:12 51°14.452 2°54.845 276.5 10.8 278.4 11.7
2002-04-23 07:01:17 51°14.454 2°54.821 275.7 10.9 275.7 11.7
2002-04-23 07:01:22 51°14.455 2°54.796 274.8 11 275.3 11.7
2002-04-23 07:01:27 51°14.456 2°54.772 275 11.1 274.4 11.7
2002-04-23 07:01:32 51°14.458 2°54.747 277.3 11.2 275.9 11.7
2002-04-23 07:01:37 51°14.461 2°54.722 279.2 11.3 278.1 11.7
2002-04-23 07:01:42 51°14.463 2°54.697 279 11.3 278.4 11.6
2002-04-23 07:01:47 51°14.465 2°54.673 277.3 11.3 277.8 11.6
2002-04-23 07:01:52 51°14.465 2°54.648 273.3 11.2 275.3 11.6
2002-04-23 07:01:57 51°14.463 2°54.623 267.7 11.2 269.6 11.5
2002-04-23 07:02:02 51°14.462 2°54.599 264.3 11.1 265.6 11.5
2002-04-23 07:02:07 51°14.458 2°54.575 261.7 11.1 261.7 11.5
2002-04-23 07:02:12 51°14.455 2°54.551 259.5 11.2 258.8 11.5
2002-04-23 07:02:17 51°14.451 2°54.527 256 11.1 256.1 11.5
2002-04-23 07:02:21 51°14.446 2°54.509 251.8 11.1 252.7 11.5
2002-04-23 07:02:27 51°14.438 2°54.483 246.3 11 247.1 11.5
2002-04-23 07:02:32 51°14.43 2°54.462 243.2 11 242.1 11.4
2002-04-23 07:02:37 51°14.422 2°54.44 241.7 11.1 240.1 11.3
2002-04-23 07:02:42 51°14.414 2°54.42 240.2 11.1 238.9 11.3
2002-04-23 07:02:47 51°14.405 2°54.399 238.7 11.2 237.1 11.2
2002-04-23 07:02:52 51°14.396 2°54.379 237.7 11.3 236.1 11.1
2002-04-23 07:02:57 51°14.388 2°54.358 236.7 11.3 235 11.1
2002-04-23 07:03:02 51°14.379 2°54.338 237 11.3 234.6 11
2002-04-23 07:03:07 51°14.37 2°54.317 238.3 11.3 235.6 10.8
2002-04-23 07:03:12 51°14.362 2°54.296 240 11.3 237.5 10.9
2002-04-23 07:03:17 51°14.354 2°54.274 240.7 11.3 238 10.9
2002-04-23 07:03:22 51°14.346 2°54.253 240.8 11.3 238.7 10.9
2002-04-23 07:03:27 51°14.337 2°54.232 240.7 11.4 238.4 10.7
2002-04-23 07:03:32 51°14.329 2°54.21 240.5 11.4 238.5 10.8
2002-04-23 07:03:37 51°14.321 2°54.189 240 11.4 237.9 10.8
2002-04-23 07:03:42 51°14.313 2°54.168 239.3 11.4 237.6 10.8
2002-04-23 07:03:47 51°14.304 2°54.147 239.2 11.4 237.1 10.8
2002-04-23 07:03:52 51°14.296 2°54.126 239.2 11.4 237.2 10.8
2002-04-23 07:03:57 51°14.287 2°54.105 239.5 11.3 237.3 10.7
2002-04-23 07:04:02 51°14.279 2°54.084 239.7 11.3 237.5 10.8
2002-04-23 07:04:07 51°14.271 2°54.063 239.5 11.3 237.7 10.7
2002-04-23 07:04:12 51°14.262 2°54.042 239.3 11.3 237.5 10.8
2002-04-23 07:04:17 51°14.254 2°54.021 239.7 11.3 237.6 10.7
2002-04-23 07:04:21 51°14.247 2°54.004 239.8 11.3 237.6 10.7
2002-04-23 07:04:27 51°14.238 2°53.978 240.3 11.3 238.1 10.7
2002-04-23 07:04:32 51°14.229 2°53.957 241.2 11.3 238.9 10.7
2002-04-23 07:04:37 51°14.221 2°53.935 241.3 11.4 239.1 10.7
2002-04-23 07:04:41 51°14.215 2°53.918 241.7 11.4 239.3 10.8
2002-04-23 07:04:47 51°14.206 2°53.892 242 11.4 240 10.8
2002-04-23 07:04:52 51°14.198 2°53.87 242.5 11.4 240.3 10.7
2002-04-23 07:04:57 51°14.19 2°53.848 242.7 11.3 240.6 10.8
2002-04-23 07:05:01 51°14.184 2°53.831 242.7 11.3 240.6 10.8
2002-04-23 07:05:07 51°14.175 2°53.804 242.5 11.3 240.8 10.8
2002-04-23 07:05:12 51°14.167 2°53.783 242.5 11.4 240.4 10.8
2002-04-23 07:05:17 51°14.159 2°53.761 242.2 11.3 240.2 10.8
2002-04-23 07:05:22 51°14.151 2°53.74 241.8 11.3 240 10.9
2002-04-23 07:05:27 51°14.143 2°53.718 242 11.3 239.7 10.9
2002-04-23 07:05:32 51°14.136 2°53.696 241.8 11.3 239.8 11
2002-04-23 07:05:37 51°14.128 2°53.674 241.8 11.4 239.8 10.9
2002-04-23 07:05:42 51°14.12 2°53.653 242 11.4 240 11
2002-04-23 07:05:47 51°14.112 2°53.631 241.8 11.4 239.9 11
2002-04-23 07:05:52 51°14.104 2°53.61 241.8 11.3 240.1 11
2002-04-23 07:05:57 51°14.096 2°53.588 242 11.4 239.4 11
2002-04-23 07:06:02 51°14.088 2°53.565 241.7 11.5 239.8 11
2002-04-23 07:06:07 51°14.08 2°53.543 242.2 11.7 239.6 10.9
2002-04-23 07:06:12 51°14.071 2°53.52 242 11.9 239.7 11.1
2002-04-23 07:06:17 51°14.063 2°53.497 241.7 12 239.4 11
2002-04-23 07:06:22 51°14.054 2°53.474 242 12.1 239.7 11.1
2002-04-23 07:06:27 51°14.046 2°53.45 242 12.3 239.6 11.1
2002-04-23 07:06:32 51°14.037 2°53.426 242.2 12.4 240.1 11
2002-04-23 07:06:37 51°14.028 2°53.402 242.3 12.5 240.1 11.1
2002-04-23 07:06:41 51°14.021 2°53.383 242 12.6 240.1 11.1
2002-04-23 07:06:47 51°14.011 2°53.354 241.7 12.5 240 11
2002-04-23 07:06:52 51°14.002 2°53.329 241.5 12.5 239.8 11.1
2002-04-23 07:06:57 51°13.993 2°53.305 241.8 12.7 239.5 11.2
2002-04-23 07:07:02 51°13.984 2°53.28 241.7 12.8 240 11.3
2002-04-23 07:07:07 51°13.975 2°53.256 241.7 12.8 239.6 11.3
2002-04-23 07:07:12 51°13.966 2°53.232 241.8 12.8 239.7 11.3
2002-04-23 07:07:17 51°13.957 2°53.208 241.7 12.8 239.8 11.3
2002-04-23 07:07:22 51°13.949 2°53.183 242 12.8 239.5 11.4
2002-04-23 07:07:27 51°13.94 2°53.159 241.7 12.8 239.9 11.4
2002-04-23 07:07:32 51°13.93 2°53.134 241.7 12.9 239.6 11.4
2002-04-23 07:07:37 51°13.921 2°53.109 241.7 12.9 239.8 11.5
2002-04-23 07:07:41 51°13.914 2°53.09 241.8 12.9 239.5 11.5
2002-04-23 07:07:47 51°13.903 2°53.061 241.8 12.9 239.8 11.5
2002-04-23 07:07:52 51°13.895 2°53.036 242 12.9 239.8 11.5
2002-04-23 07:07:57 51°13.886 2°53.012 242 12.9 239.6 11.5
2002-04-23 07:08:02 51°13.877 2°52.987 242 12.8 239.8 11.5
2002-04-23 07:08:07 51°13.867 2°52.962 241.8 12.8 239.6 11.5
2002-04-23 07:08:11 51°13.86 2°52.943 241.8 12.9 239.6 11.6
2002-04-23 07:08:17 51°13.85 2°52.913 241.8 12.9 239.3 11.6
2002-04-23 07:08:22 51°13.84 2°52.888 241.7 13 239.4 11.7
2002-04-23 07:08:27 51°13.832 2°52.863 242 13 239.4 11.7
2002-04-23 07:08:32 51°13.822 2°52.839 242.2 13 239.7 11.7
2002-04-23 07:08:37 51°13.813 2°52.814 242.2 13 240 11.7
2002-04-23 07:08:42 51°13.804 2°52.789 242.2 12.9 239.5 11.7
2002-04-23 07:08:47 51°13.795 2°52.764 242 12.9 239.8 11.7
2002-04-23 07:08:52 51°13.786 2°52.74 241.7 13 239.3 11.8
2002-04-23 07:08:57 51°13.776 2°52.715 241.7 13 239.4 11.8
2002-04-23 07:09:02 51°13.767 2°52.69 241.5 13 239.6 11.9
2002-04-23 07:09:07 51°13.758 2°52.666 242.2 13 239.2 11.8
2002-04-23 07:09:12 51°13.749 2°52.641 241.8 13 239.5 11.9
2002-04-23 07:09:17 51°13.74 2°52.617 241.5 13 239.3 11.8
2002-04-23 07:09:22 51°13.731 2°52.592 241.7 13 239.3 11.9
2002-04-23 07:09:27 51°13.722 2°52.567 241.8 13 239.4 11.8
2002-04-23 07:09:32 51°13.713 2°52.542 241.7 13 239.2 11.8
2002-04-23 07:09:37 51°13.704 2°52.518 241.8 13 239.7 11.8
2002-04-23 07:09:42 51°13.695 2°52.493 241.8 13 239.8 11.6
2002-04-23 07:09:47 51°13.686 2°52.468 242 12.9 240 11.6
2002-04-23 07:09:52 51°13.677 2°52.443 242 12.9 239.9 11.7
2002-04-23 07:09:57 51°13.668 2°52.418 241.8 13 239.9 11.9
2002-04-23 07:10:01 51°13.66 2°52.399 242 13 239.9 12
2002-04-23 07:10:07 51°13.65 2°52.369 241.7 13 239.9 12
2002-04-23 07:10:12 51°13.641 2°52.344 242.2 13 239.6 12.1
2002-04-23 07:10:17 51°13.631 2°52.32 241.8 13 239.8 12.1
2002-04-23 07:10:22 51°13.622 2°52.295 241.8 13 239.7 12.2
2002-04-23 07:10:27 51°13.613 2°52.27 242 13 239.4 12.2
2002-04-23 07:10:31 51°13.606 2°52.251 241.5 13 239.5 12.2
2002-04-23 07:10:37 51°13.595 2°52.221 241.5 13 239.4 12
2002-04-23 07:10:41 51°13.587 2°52.201 241.8 13 239.3 12.1
2002-04-23 07:10:47 51°13.576 2°52.172 241.7 13 239.5 12.2
2002-04-23 07:10:52 51°13.567 2°52.147 242 13 239.5 12.2
2002-04-23 07:10:57 51°13.558 2°52.122 242 13 239.8 12.1
2002-04-23 07:11:02 51°13.549 2°52.097 242.2 13 239.8 12.1
2002-04-23 07:11:07 51°13.54 2°52.072 241.8 13 239.6 12.1
2002-04-23 07:11:12 51°13.531 2°52.047 242.3 13 240 12.1
2002-04-23 07:11:17 51°13.522 2°52.023 242 13 239.4 12.1
2002-04-23 07:11:22 51°13.513 2°51.998 241.8 13 239.6 12.1
2002-04-23 07:11:27 51°13.504 2°51.974 241.8 13 239.9 12.2
2002-04-23 07:11:32 51°13.495 2°51.949 242 12.9 239.8 12.2
2002-04-23 07:11:37 51°13.486 2°51.924 242.2 12.9 239.6 12.1
2002-04-23 07:11:41 51°13.478 2°51.904 241.8 13 239.7 12.1
2002-04-23 07:11:47 51°13.467 2°51.875 242 13 239.6 12.2
2002-04-23 07:11:52 51°13.458 2°51.85 241.8 12.9 239.5 11.9
2002-04-23 07:11:57 51°13.449 2°51.825 241.7 13 239.2 12.1
2002-04-23 07:12:01 51°13.442 2°51.806 241.5 13 239.6 12.1
2002-04-23 07:12:07 51°13.431 2°51.776 241.7 13 239.5 12
2002-04-23 07:12:12 51°13.422 2°51.751 242.2 13 239.7 12.2
2002-04-23 07:12:17 51°13.413 2°51.726 241.8 13 239.8 12.2
2002-04-23 07:12:22 51°13.404 2°51.702 241.7 12.9 239.5 12.2
2002-04-23 07:12:27 51°13.395 2°51.677 242.2 13 239.7 12.2
2002-04-23 07:12:32 51°13.386 2°51.652 242.2 12.9 239.6 12.2
2002-04-23 07:12:37 51°13.377 2°51.627 242 12.9 239.9 12.3
2002-04-23 07:12:42 51°13.368 2°51.603 242.2 12.9 239.7 12.2
2002-04-23 07:12:47 51°13.359 2°51.578 242 12.9 239.8 12.1
2002-04-23 07:12:52 51°13.35 2°51.554 241.8 12.9 239.6 12.1
2002-04-23 07:12:57 51°13.341 2°51.529 241.7 12.9 239.7 12
2002-04-23 07:13:02 51°13.332 2°51.504 241.8 12.9 239.4 12.1
2002-04-23 07:13:07 51°13.323 2°51.48 241.7 12.9 239.7 12.1
2002-04-23 07:13:12 51°13.314 2°51.455 241.8 12.9 239.8 12.1
2002-04-23 07:13:17 51°13.305 2°51.431 242 12.9 239.8 12.1
2002-04-23 07:13:22 51°13.296 2°51.407 241.5 12.8 239.7 12.1
2002-04-23 07:13:27 51°13.287 2°51.382 241.3 12.9 239.5 12.1
2002-04-23 07:13:32 51°13.278 2°51.357 241.3 12.9 239.5 12.2
2002-04-23 07:13:37 51°13.269 2°51.333 241.7 12.9 239.5 12.2
2002-04-23 07:13:42 51°13.26 2°51.308 242 12.9 240 12
2002-04-23 07:13:47 51°13.251 2°51.284 242 12.8 239.8 12.1
2002-04-23 07:13:52 51°13.242 2°51.26 241.7 12.8 239.9 12.2
2002-04-23 07:13:57 51°13.233 2°51.235 242 12.8 240.1 12.2
2002-04-23 07:14:02 51°13.224 2°51.211 242 12.8 239.9 12.3
2002-04-23 07:14:07 51°13.215 2°51.186 241.5 12.8 239.7 12.3
2002-04-23 07:14:11 51°13.208 2°51.167 242 12.8 239.6 12.3
2002-04-23 07:14:17 51°13.197 2°51.137 242.3 12.8 239.8 12.3
2002-04-23 07:14:21 51°13.19 2°51.117 242 12.9 240.3 12.4
2002-04-23 07:14:27 51°13.18 2°51.088 242.2 12.9 239.9 12.3
2002-04-23 07:14:32 51°13.171 2°51.063 242.2 12.9 240.1 12.3
2002-04-23 07:14:37 51°13.162 2°51.039 241.5 12.8 239.8 12.3
2002-04-23 07:14:42 51°13.153 2°51.014 241.5 12.8 239.8 12.2
2002-04-23 07:14:47 51°13.144 2°50.99 241.8 12.9 239.8 12.3
2002-04-23 07:14:52 51°13.135 2°50.965 242.3 12.8 240.3 12.3
2002-04-23 07:14:57 51°13.127 2°50.941 242.5 12.8 240.4 12.2
2002-04-23 07:15:02 51°13.118 2°50.916 242 12.8 240.4 12.2
2002-04-23 07:15:07 51°13.109 2°50.892 241.8 12.8 240.4 12.3
2002-04-23 07:15:12 51°13.1 2°50.867 241.8 12.8 240.2 12.4
2002-04-23 07:15:17 51°13.091 2°50.843 241.8 12.8 240.2 12.4
2002-04-23 07:15:22 51°13.082 2°50.818 241.7 12.8 239.9 12.4
2002-04-23 07:15:27 51°13.073 2°50.794 241.7 12.8 239.7 12.3
2002-04-23 07:15:32 51°13.064 2°50.769 241.7 12.8 240 12.3
2002-04-23 07:15:37 51°13.056 2°50.745 241.8 12.8 239.8 12.4
2002-04-23 07:15:42 51°13.047 2°50.72 241.8 12.8 239.9 12.3
2002-04-23 07:15:47 51°13.038 2°50.696 241.7 12.8 240 12.4
2002-04-23 07:15:52 51°13.029 2°50.671 241.8 12.7 239.9 12.4
2002-04-23 07:15:57 51°13.02 2°50.646 242.2 12.8 239.9 12.4
2002-04-23 07:16:02 51°13.011 2°50.622 241.5 12.8 239.8 12.3
2002-04-23 07:16:07 51°13.002 2°50.598 241.5 12.8 239.6 12.5
2002-04-23 07:16:12 51°12.993 2°50.573 241.8 12.8 239.7 12.4
2002-04-23 07:16:17 51°12.984 2°50.548 242 12.9 240 12.5
2002-04-23 07:16:22 51°12.975 2°50.524 242 12.8 240.2 12.5
2002-04-23 07:16:27 51°12.967 2°50.499 242.2 12.8 240.2 12.5
2002-04-23 07:16:32 51°12.958 2°50.475 241.8 12.8 240.3 12.4
2002-04-23 07:16:37 51°12.949 2°50.45 242 12.9 240 12.4
2002-04-23 07:16:42 51°12.94 2°50.426 241.7 12.9 239.9 12.4
2002-04-23 07:16:47 51°12.931 2°50.401 241.7 12.9 240 12.5
2002-04-23 07:16:52 51°12.922 2°50.377 241.8 12.8 240.3 12.3
2002-04-23 07:16:57 51°12.913 2°50.352 241.7 12.9 240.2 12.5
2002-04-23 07:17:01 51°12.906 2°50.333 241.5 12.9 239.9 12.5
2002-04-23 07:17:07 51°12.896 2°50.303 242 12.8 239.8 12.5
2002-04-23 07:17:12 51°12.887 2°50.279 241.8 12.8 240.1 12.5
2002-04-23 07:17:17 51°12.878 2°50.254 241.8 12.8 240 12.5
2002-04-23 07:17:21 51°12.871 2°50.234 241.8 12.8 240.1 12.5
2002-04-23 07:17:27 51°12.86 2°50.205 241.5 12.8 240.1 12.6
2002-04-23 07:17:32 51°12.851 2°50.18 242 12.8 239.7 12.6
2002-04-23 07:17:37 51°12.842 2°50.156 241.8 12.8 240.1 12.6
2002-04-23 07:17:41 51°12.835 2°50.136 241.8 12.8 240 12.6
2002-04-23 07:17:47 51°12.824 2°50.107 241.2 12.8 239.8 12.6
2002-04-23 07:17:52 51°12.815 2°50.083 240.3 12.8 238.6 12.6
2002-04-23 07:17:57 51°12.805 2°50.059 239.2 12.8 237.4 12.6
2002-04-23 07:18:02 51°12.796 2°50.036 238.3 12.8 237 12.6
2002-04-23 07:18:07 51°12.785 2°50.013 237.7 12.7 235.5 12.6
2002-04-23 07:18:12 51°12.775 2°49.989 236.8 12.8 235.5 12.6
2002-04-23 07:18:17 51°12.765 2°49.967 236.5 12.8 234.4 12.5
2002-04-23 07:18:22 51°12.755 2°49.944 236.3 12.8 234.4 12.6
2002-04-23 07:18:27 51°12.744 2°49.921 236.3 12.8 234 12.6
2002-04-23 07:18:32 51°12.734 2°49.897 236.7 12.8 234.9 12.6
2002-04-23 07:18:37 51°12.724 2°49.875 237 12.8 234.3 12.6
2002-04-23 07:18:41 51°12.716 2°49.856 236.8 12.8 235.2 12.6
2002-04-23 07:18:47 51°12.704 2°49.829 237 12.8 234.5 12.6
2002-04-23 07:18:52 51°12.694 2°49.805 236.8 12.8 235.6 12.6
2002-04-23 07:18:57 51°12.684 2°49.782 237.2 12.8 235.2 12.6
2002-04-23 07:19:02 51°12.674 2°49.759 237.7 12.7 235.5 12.6
2002-04-23 07:19:07 51°12.664 2°49.736 237.7 12.7 235.3 12.5
2002-04-23 07:19:12 51°12.654 2°49.712 237.7 12.8 235.8 12.5
2002-04-23 07:19:17 51°12.644 2°49.688 237.8 12.8 235.9 12.5
2002-04-23 07:19:22 51°12.634 2°49.665 238 12.8 236.5 12.5
2002-04-23 07:19:27 51°12.624 2°49.642 238.3 12.8 236.1 12.6
2002-04-23 07:19:32 51°12.615 2°49.618 238.2 12.8 236.7 12.5
2002-04-23 07:19:37 51°12.605 2°49.594 238.5 12.8 236.2 12.5
2002-04-23 07:19:42 51°12.595 2°49.571 238.2 12.8 236.3 12.3
2002-04-23 07:19:47 51°12.586 2°49.547 238.2 12.8 236.2 12.6
2002-04-23 07:19:52 51°12.576 2°49.524 238.5 12.8 236.5 12.5
2002-04-23 07:19:57 51°12.566 2°49.5 238 12.8 236.3 12.5
2002-04-23 07:20:02 51°12.556 2°49.477 238.2 12.8 236.3 12.5
2002-04-23 07:20:07 51°12.546 2°49.454 237.8 12.8 236.1 12.5
2002-04-23 07:20:11 51°12.538 2°49.435 237.8 12.8 236.4 12.5
2002-04-23 07:20:17 51°12.526 2°49.407 238.3 12.8 235.9 12.5
2002-04-23 07:20:21 51°12.519 2°49.388 238 12.8 236.2 12.5
2002-04-23 07:20:27 51°12.507 2°49.36 238 12.7 236 12.5
2002-04-23 07:20:32 51°12.497 2°49.337 238 12.7 236.2 12.5
2002-04-23 07:20:37 51°12.487 2°49.313 237.8 12.7 235.6 12.5
2002-04-23 07:20:42 51°12.477 2°49.29 237.7 12.7 236.1 12.5
2002-04-23 07:20:47 51°12.467 2°49.267 237.7 12.7 235.2 12.4
2002-04-23 07:20:52 51°12.457 2°49.244 237.7 12.7 236 12.4
2002-04-23 07:20:57 51°12.447 2°49.221 238 12.6 235.8 12.2
2002-04-23 07:21:02 51°12.437 2°49.197 238.3 12.7 236.1 12.4
2002-04-23 07:21:07 51°12.427 2°49.174 237.8 12.7 236.1 12.3
2002-04-23 07:21:12 51°12.417 2°49.15 237.7 12.8 235.7 12.3
2002-04-23 07:21:17 51°12.408 2°49.127 237.5 12.8 236.1 12.4
2002-04-23 07:21:22 51°12.397 2°49.104 237.7 12.8 235.3 12.3
2002-04-23 07:21:27 51°12.387 2°49.081 237.7 12.8 235.9 12.2
2002-04-23 07:21:32 51°12.378 2°49.057 237.7 12.8 235.5 12.3
2002-04-23 07:21:37 51°12.368 2°49.034 238 12.7 236.3 12.3
2002-04-23 07:21:42 51°12.358 2°49.011 238 12.7 236 12.3
2002-04-23 07:21:47 51°12.348 2°48.988 238 12.7 236.2 12.3
2002-04-23 07:21:52 51°12.338 2°48.964 237.8 12.7 236.1 12.3
2002-04-23 07:21:57 51°12.328 2°48.941 237.8 12.7 236.1 12.3
2002-04-23 07:22:02 51°12.319 2°48.917 237.8 12.7 236 12.3
2002-04-23 07:22:07 51°12.309 2°48.894 238 12.7 236.2 12.3
2002-04-23 07:22:12 51°12.299 2°48.871 238.5 12.7 236.1 12.3
2002-04-23 07:22:17 51°12.289 2°48.848 237.8 12.7 236.5 12.3
2002-04-23 07:22:22 51°12.279 2°48.825 237.7 12.7 235.7 12.3
2002-04-23 07:22:27 51°12.27 2°48.801 237.5 12.7 236.1 12.3
2002-04-23 07:22:32 51°12.26 2°48.778 237.8 12.7 235.8 12.3
2002-04-23 07:22:37 51°12.25 2°48.755 238.2 12.7 235.8 12.3
2002-04-23 07:22:42 51°12.24 2°48.732 237.8 12.7 236 12.3
2002-04-23 07:22:47 51°12.23 2°48.709 237.8 12.7 236 12.3
2002-04-23 07:22:52 51°12.22 2°48.686 237.8 12.7 236.2 12.3
2002-04-23 07:22:57 51°12.211 2°48.662 238 12.7 236.1 12.2
2002-04-23 07:23:02 51°12.201 2°48.639 237.8 12.6 236.1 12.3
2002-04-23 07:23:07 51°12.191 2°48.616 237.7 12.6 236.1 12.2
2002-04-23 07:23:12 51°12.181 2°48.593 238 12.7 235.8 12.1
2002-04-23 07:23:17 51°12.172 2°48.569 238 12.7 236.5 12.2
2002-04-23 07:23:21 51°12.164 2°48.551 238.2 12.7 236 12.2
2002-04-23 07:23:27 51°12.152 2°48.523 237.8 12.7 236.2 12.2
2002-04-23 07:23:32 51°12.142 2°48.5 237.7 12.7 235.7 12.2
2002-04-23 07:23:37 51°12.132 2°48.477 237.7 12.7 235.7 12.2
2002-04-23 07:23:42 51°12.123 2°48.453 238 12.7 235.8 12.1
2002-04-23 07:23:47 51°12.112 2°48.431 238 12.7 235.5 12.1
2002-04-23 07:23:52 51°12.102 2°48.408 237.7 12.7 235.7 12.1
2002-04-23 07:23:57 51°12.093 2°48.384 238 12.7 235.7 12
2002-04-23 07:24:02 51°12.083 2°48.361 237.7 12.7 235.7 12.1
2002-04-23 07:24:07 51°12.073 2°48.338 237.7 12.7 236 12.1
2002-04-23 07:24:12 51°12.063 2°48.315 238 12.7 235.8 12
2002-04-23 07:24:17 51°12.053 2°48.291 238 12.7 236.5 11.9
2002-04-23 07:24:22 51°12.043 2°48.268 238 12.7 236.5 12
2002-04-23 07:24:27 51°12.033 2°48.245 237.8 12.7 236 12
2002-04-23 07:24:32 51°12.024 2°48.222 237.8 12.7 235.9 12
2002-04-23 07:24:37 51°12.014 2°48.199 238 12.7 235.7 11.9
2002-04-23 07:24:42 51°12.004 2°48.176 237.7 12.7 235.6 11.9
2002-04-23 07:24:47 51°11.994 2°48.152 237.8 12.7 235.8 12
2002-04-23 07:24:52 51°11.984 2°48.129 238.2 12.7 235.8 11.8
2002-04-23 07:24:57 51°11.975 2°48.105 239 12.7 236.5 11.9
2002-04-23 07:25:02 51°11.966 2°48.081 239.3 12.7 237.3 11.9
2002-04-23 07:25:07 51°11.956 2°48.058 239.7 12.7 237.4 11.8
2002-04-23 07:25:12 51°11.947 2°48.035 240.2 12.6 237.9 11.7
2002-04-23 07:25:17 51°11.938 2°48.011 240.7 12.6 238.1 11.7
2002-04-23 07:25:22 51°11.929 2°47.987 240.5 12.6 238.6 11.7
2002-04-23 07:25:27 51°11.92 2°47.964 240.3 12.6 238.5 11.8
2002-04-23 07:25:32 51°11.91 2°47.94 240.3 12.6 238.2 11.5
2002-04-23 07:25:37 51°11.901 2°47.916 240.2 12.6 238.3 11.8
2002-04-23 07:25:42 51°11.892 2°47.892 240.5 12.6 238.1 11.7
2002-04-23 07:25:47 51°11.883 2°47.868 240.5 12.6 238.5 11.6
2002-04-23 07:25:52 51°11.874 2°47.845 240.3 12.6 238.4 11.6
2002-04-23 07:25:57 51°11.864 2°47.821 240.3 12.6 238.6 11.7
2002-04-23 07:26:02 51°11.855 2°47.798 239.8 12.6 238.2 11.6
2002-04-23 07:26:07 51°11.846 2°47.774 240 12.6 238.1 11.5
2002-04-23 07:26:12 51°11.836 2°47.75 239.5 12.6 238.1 11.5
2002-04-23 07:26:17 51°11.827 2°47.727 239.8 12.6 237.9 11.5
2002-04-23 07:26:22 51°11.818 2°47.703 239.5 12.6 237.8 11.5
2002-04-23 07:26:27 51°11.808 2°47.679 239.8 12.6 237.7 11.3
2002-04-23 07:26:32 51°11.799 2°47.655 240 12.6 238.1 11.4
2002-04-23 07:26:37 51°11.79 2°47.632 239.8 12.6 238 11.3
2002-04-23 07:26:42 51°11.781 2°47.608 239.7 12.6 237.6 11.3
2002-04-23 07:26:47 51°11.772 2°47.584 239.8 12.6 238 11.3
2002-04-23 07:26:52 51°11.762 2°47.561 240.2 12.6 238 11.3
2002-04-23 07:26:57 51°11.753 2°47.537 240 12.6 237.9 11.3
2002-04-23 07:27:02 51°11.743 2°47.514 239.8 12.6 237.7 11.1
2002-04-23 07:27:07 51°11.734 2°47.49 240 12.6 238.3 11.2
2002-04-23 07:27:12 51°11.725 2°47.467 240 12.6 238.3 11.2
2002-04-23 07:27:17 51°11.716 2°47.443 239.8 12.6 237.9 11.2
2002-04-23 07:27:22 51°11.706 2°47.42 239.8 12.6 237.9 11.1
2002-04-23 07:27:27 51°11.697 2°47.396 239.8 12.6 238.2 11.1
2002-04-23 07:27:32 51°11.688 2°47.372 240 12.6 237.8 11.1
2002-04-23 07:27:37 51°11.678 2°47.349 239.8 12.6 238 10.9
2002-04-23 07:27:42 51°11.669 2°47.325 239.7 12.6 237.8 11
2002-04-23 07:27:47 51°11.66 2°47.301 239.8 12.6 237.8 11
2002-04-23 07:27:52 51°11.65 2°47.278 239.7 12.6 237.5 11
2002-04-23 07:27:57 51°11.641 2°47.254 240.2 12.6 237.5 10.8
2002-04-23 07:28:01 51°11.634 2°47.235 239.8 12.7 238.1 10.9
2002-04-23 07:28:07 51°11.623 2°47.207 239.8 12.6 237.7 10.8
2002-04-23 07:28:12 51°11.614 2°47.184 240 12.6 238 10.8
2002-04-23 07:28:17 51°11.604 2°47.16 239.3 12.6 237.5 10.7
2002-04-23 07:28:22 51°11.595 2°47.137 239.7 12.6 237.5 10.6
2002-04-23 07:28:27 51°11.585 2°47.114 239.7 12.6 237.6 10.6
2002-04-23 07:28:32 51°11.576 2°47.09 239.8 12.6 237.7 10.7
2002-04-23 07:28:37 51°11.567 2°47.067 240 12.6 237.9 10.6
2002-04-23 07:28:42 51°11.558 2°47.043 239.8 12.6 237.9 10.6
2002-04-23 07:28:47 51°11.548 2°47.02 240 12.6 237.9 10.3
2002-04-23 07:28:52 51°11.539 2°46.996 239.8 12.5 237.3 10.6
2002-04-23 07:28:57 51°11.53 2°46.973 240 12.6 237.5 10.6
2002-04-23 07:29:02 51°11.52 2°46.95 239.2 12.6 237.6 10.5
2002-04-23 07:29:07 51°11.511 2°46.926 239.3 12.6 237.4 10.5
2002-04-23 07:29:12 51°11.502 2°46.903 239.7 12.5 237.3 10.5
2002-04-23 07:29:17 51°11.492 2°46.88 239.8 12.5 237.8 10.4
2002-04-23 07:29:22 51°11.483 2°46.856 239.7 12.5 237.3 10.4
2002-04-23 07:29:27 51°11.474 2°46.833 240.2 12.5 237.5 10.4
2002-04-23 07:29:32 51°11.464 2°46.81 239.8 12.5 237.5 10.4
2002-04-23 07:29:37 51°11.455 2°46.786 240.3 12.5 237.8 10.2
2002-04-23 07:29:41 51°11.448 2°46.767 240.3 12.5 238 10.3
2002-04-23 07:29:47 51°11.437 2°46.739 240.2 12.5 238.1 10.3
2002-04-23 07:29:52 51°11.427 2°46.716 239.8 12.5 237.7 10.1
2002-04-23 07:29:57 51°11.418 2°46.692 240.2 12.6 237.9 10.3
2002-04-23 07:30:02 51°11.409 2°46.669 240.3 12.6 238 10.3
2002-04-23 07:30:07 51°11.4 2°46.645 240.3 12.5 238.1 10.3
2002-04-23 07:30:12 51°11.39 2°46.622 239.8 12.6 237.7 10.2
2002-04-23 07:30:17 51°11.381 2°46.598 240 12.6 237.7 10.2
2002-04-23 07:30:22 51°11.372 2°46.575 239.7 12.6 237.4 10.2
2002-04-23 07:30:27 51°11.362 2°46.552 239.5 12.6 237.3 10.2
2002-04-23 07:30:32 51°11.353 2°46.528 239.8 12.6 237.2 10.2
2002-04-23 07:30:37 51°11.343 2°46.505 239.7 12.6 237.1 10.2
2002-04-23 07:30:42 51°11.334 2°46.481 240.2 12.6 237.2 10.2
2002-04-23 07:30:47 51°11.325 2°46.458 240 12.6 237.6 10.2
2002-04-23 07:30:52 51°11.316 2°46.435 240 12.6 237.7 10.2
2002-04-23 07:30:57 51°11.306 2°46.412 240.2 12.6 238 10.2
2002-04-23 07:31:01 51°11.299 2°46.393 239.7 12.5 237.9 10.2
2002-04-23 07:31:07 51°11.288 2°46.365 240.2 12.6 237.6 10.2
2002-04-23 07:31:12 51°11.278 2°46.341 240.2 12.6 237.9 10.3
2002-04-23 07:31:17 51°11.269 2°46.318 240 12.6 237.7 10.3
2002-04-23 07:31:22 51°11.259 2°46.295 240 12.6 237.5 10.3
2002-04-23 07:31:27 51°11.25 2°46.271 239.8 12.6 237.5 10.2
2002-04-23 07:31:32 51°11.241 2°46.248 240 12.6 237.6 10.3
2002-04-23 07:31:37 51°11.231 2°46.224 240 12.6 237.6 10.3
2002-04-23 07:31:42 51°11.222 2°46.201 239.8 12.6 237.6 10.3
2002-04-23 07:31:47 51°11.213 2°46.177 239.8 12.6 237.4 10.3
2002-04-23 07:31:52 51°11.203 2°46.154 239.8 12.6 237.5 10.2
2002-04-23 07:31:57 51°11.194 2°46.13 240.2 12.6 237.4 10.3
2002-04-23 07:32:02 51°11.184 2°46.107 239.8 12.7 237.4 10.3
2002-04-23 07:32:07 51°11.175 2°46.083 240 12.7 237.6 10.2
2002-04-23 07:32:12 51°11.166 2°46.059 240.2 12.7 237.5 10.3
2002-04-23 07:32:17 51°11.156 2°46.035 240 12.7 237.6 10.3
2002-04-23 07:32:22 51°11.147 2°46.012 239.8 12.7 237.1 10.2
2002-04-23 07:32:27 51°11.137 2°45.989 239.5 12.6 237.2 10.3
2002-04-23 07:32:32 51°11.128 2°45.965 240 12.6 237.2 10.3
2002-04-23 07:32:37 51°11.119 2°45.942 240.2 12.6 237.6 10.3
2002-04-23 07:32:42 51°11.109 2°45.918 240.2 12.6 237.7 10.3
2002-04-23 07:32:47 51°11.1 2°45.895 239.8 12.6 237.4 10.2
2002-04-23 07:32:52 51°11.091 2°45.871 240.3 12.6 237.6 10.3
2002-04-23 07:32:57 51°11.081 2°45.848 240.3 12.6 237.8 10.3
2002-04-23 07:33:02 51°11.072 2°45.824 240.2 12.6 237.7 10.3
2002-04-23 07:33:07 51°11.062 2°45.801 239.7 12.6 237.6 10.2
2002-04-23 07:33:12 51°11.053 2°45.777 239.3 12.6 237 10.3
2002-04-23 07:33:17 51°11.043 2°45.754 239.5 12.6 237.1 10.3
2002-04-23 07:33:22 51°11.034 2°45.73 239.7 12.6 237.3 10.3
2002-04-23 07:33:27 51°11.025 2°45.707 239.5 12.6 237.4 10.2
2002-04-23 07:33:32 51°11.015 2°45.683 239.7 12.6 237.2 10.2
2002-04-23 07:33:37 51°11.006 2°45.66 240 12.6 237.6 10.2
2002-04-23 07:33:41 51°10.998 2°45.641 239.8 12.6 237.6 10.2
2002-04-23 07:33:47 51°10.987 2°45.613 239.8 12.6 237.7 10.2
2002-04-23 07:33:52 51°10.978 2°45.59 239.7 12.6 237.4 10.2
2002-04-23 07:33:57 51°10.968 2°45.567 239.7 12.6 237.1 10.3
2002-04-23 07:34:02 51°10.959 2°45.543 239.2 12.6 236.8 10.2
2002-04-23 07:34:07 51°10.949 2°45.52 239.3 12.6 237 10.2
2002-04-23 07:34:12 51°10.94 2°45.496 239.8 12.6 237.4 10.3
2002-04-23 07:34:17 51°10.931 2°45.473 239.8 12.6 237.3 10.3
2002-04-23 07:34:22 51°10.921 2°45.45 239.8 12.6 237.4 10.3
2002-04-23 07:34:27 51°10.912 2°45.426 240 12.6 237.5 10.3
2002-04-23 07:34:32 51°10.903 2°45.403 239.7 12.5 237.4 10.3
2002-04-23 07:34:37 51°10.893 2°45.38 239.7 12.5 237.5 10.3
2002-04-23 07:34:42 51°10.884 2°45.356 240 12.6 237.7 10.3
2002-04-23 07:34:47 51°10.875 2°45.333 240 12.6 238 10.3
2002-04-23 07:34:52 51°10.866 2°45.31 240 12.5 237.9 10.3
2002-04-23 07:34:57 51°10.856 2°45.287 240.2 12.5 237.9 10.2
2002-04-23 07:35:01 51°10.849 2°45.268 239.8 12.5 238.1 10.1
2002-04-23 07:35:07 51°10.838 2°45.24 239.8 12.5 237.6 10.3
2002-04-23 07:35:12 51°10.829 2°45.216 240.2 12.5 238.1 10.1
2002-04-23 07:35:17 51°10.819 2°45.193 240 12.5 237.8 10.1
2002-04-23 07:35:22 51°10.81 2°45.17 239.7 12.5 237.7 10
2002-04-23 07:35:27 51°10.801 2°45.147 239.7 12.5 237.4 9.9
2002-04-23 07:35:32 51°10.791 2°45.123 239.8 12.5 237.3 10
2002-04-23 07:35:37 51°10.782 2°45.1 239.7 12.5 237.4 10
2002-04-23 07:35:42 51°10.773 2°45.077 239.8 12.5 237.4 10
2002-04-23 07:35:47 51°10.764 2°45.054 240.2 12.5 237.5 10
2002-04-23 07:35:52 51°10.755 2°45.03 239.8 12.5 237.8 10.1
2002-04-23 07:35:57 51°10.745 2°45.007 240 12.5 237.6 10.2
2002-04-23 07:36:02 51°10.736 2°44.984 239.8 12.5 237.6 10.3
2002-04-23 07:36:07 51°10.726 2°44.96 240.2 12.6 237.4 10.4
2002-04-23 07:36:12 51°10.717 2°44.937 240.3 12.6 237.5 10.4
2002-04-23 07:36:17 51°10.708 2°44.914 240 12.5 238 10.5
2002-04-23 07:36:22 51°10.699 2°44.89 240 12.6 237.6 10.5
2002-04-23 07:36:27 51°10.689 2°44.867 239.7 12.5 237.8 10.6
2002-04-23 07:36:32 51°10.68 2°44.844 239.5 12.5 237.6 10.5
2002-04-23 07:36:37 51°10.671 2°44.82 240 12.5 237.7 -999
2002-04-23 07:36:42 51°10.661 2°44.797 239.8 12.5 237.8 10.4
2002-04-23 07:36:47 51°10.652 2°44.774 239.7 12.6 237.6 10.4
2002-04-23 07:36:52 51°10.643 2°44.75 240 12.6 237.8 10.7
2002-04-23 07:36:57 51°10.633 2°44.727 240 12.6 237.7 10.6
2002-04-23 07:37:02 51°10.624 2°44.703 239.5 12.5 237.8 10.2
2002-04-23 07:37:07 51°10.614 2°44.68 239.2 12.5 237 10.4
2002-04-23 07:37:12 51°10.605 2°44.657 239.7 12.6 237.3 10.7
2002-04-23 07:37:17 51°10.596 2°44.633 240 12.6 237.2 10.7
2002-04-23 07:37:21 51°10.589 2°44.614 239.8 12.6 237.7 10.3
2002-04-23 07:37:27 51°10.578 2°44.586 239.8 12.5 237.8 10.7
2002-04-23 07:37:32 51°10.568 2°44.563 239.8 12.5 237.8 10.7
2002-04-23 07:37:37 51°10.559 2°44.54 239.8 12.5 237.4 10.8
2002-04-23 07:37:42 51°10.549 2°44.516 239.5 12.6 237.4 10.7
2002-04-23 07:37:47 51°10.54 2°44.493 240 12.5 237.4 10.6
2002-04-23 07:37:52 51°10.531 2°44.47 240 12.5 237.5 10.8
2002-04-23 07:37:57 51°10.522 2°44.446 240.3 12.5 237.6 10.8
2002-04-23 07:38:02 51°10.512 2°44.423 239.8 12.5 238 10.7
2002-04-23 07:38:07 51°10.503 2°44.4 239.5 12.5 237.5 10.9
2002-04-23 07:38:12 51°10.494 2°44.377 239.8 12.4 237.7 10.9
2002-04-23 07:38:17 51°10.484 2°44.354 240 12.5 237.3 10.9
2002-04-23 07:38:22 51°10.475 2°44.33 240.2 12.5 237.6 10.8
2002-04-23 07:38:27 51°10.466 2°44.307 239.7 12.5 237.5 10.8
2002-04-23 07:38:32 51°10.457 2°44.283 239.7 12.5 237.6 11
2002-04-23 07:38:37 51°10.447 2°44.26 240 12.5 237.5 10.9
2002-04-23 07:38:42 51°10.438 2°44.236 240.2 12.5 237.4 10.8
2002-04-23 07:38:47 51°10.428 2°44.213 240 12.5 237.3 10.8
2002-04-23 07:38:52 51°10.419 2°44.19 239.8 12.5 237.6 11
2002-04-23 07:38:57 51°10.41 2°44.167 239.8 12.5 237.5 11
2002-04-23 07:39:02 51°10.401 2°44.144 239.8 12.5 237.6 11
2002-04-23 07:39:07 51°10.391 2°44.121 239.8 12.5 237.4 10.9
2002-04-23 07:39:12 51°10.382 2°44.097 240.3 12.5 237.6 11
2002-04-23 07:39:17 51°10.373 2°44.074 240.3 12.5 238.1 10.9
2002-04-23 07:39:22 51°10.364 2°44.051 240.2 12.5 237.6 11
2002-04-23 07:39:27 51°10.354 2°44.027 239.8 12.5 237.6 11.1
2002-04-23 07:39:31 51°10.347 2°44.009 240 12.5 237.4 11.1
2002-04-23 07:39:37 51°10.335 2°43.981 239.8 12.5 237.3 11
2002-04-23 07:39:42 51°10.326 2°43.958 239.8 12.5 237.4 11
2002-04-23 07:39:47 51°10.317 2°43.935 240 12.5 237.5 11
2002-04-23 07:39:52 51°10.307 2°43.912 239.7 12.5 237.2 11.1
2002-04-23 07:39:57 51°10.298 2°43.888 239.7 12.5 237.1 10.9
2002-04-23 07:40:02 51°10.289 2°43.865 240 12.5 237 11.1
2002-04-23 07:40:07 51°10.279 2°43.842 239.8 12.5 237.5 11.2
2002-04-23 07:40:12 51°10.27 2°43.819 240.2 12.5 237.1 11.2
2002-04-23 07:40:17 51°10.26 2°43.796 239.7 12.5 237.3 11.2
2002-04-23 07:40:22 51°10.251 2°43.772 239.7 12.5 237.3 11.1
2002-04-23 07:40:27 51°10.242 2°43.749 241 12.5 237.8 11.2
2002-04-23 07:40:32 51°10.234 2°43.725 242.5 12.5 239.8 11.1
2002-04-23 07:40:37 51°10.226 2°43.7 243.8 12.5 241.1 11.1
2002-04-23 07:40:42 51°10.218 2°43.675 245.3 12.5 242.1 10.9
2002-04-23 07:40:47 51°10.212 2°43.65 247.8 12.5 245 11
2002-04-23 07:40:52 51°10.205 2°43.624 250.5 12.5 247 11.2
2002-04-23 07:40:56 51°10.202 2°43.603 254 12.4 250.8 11.2
2002-04-23 07:41:02 51°10.197 2°43.571 258 12.4 253.7 11.1
2002-04-23 07:41:07 51°10.194 2°43.544 261.2 12.4 258.7 11.2
2002-04-23 07:41:12 51°10.193 2°43.517 265.2 12.4 262.4 11.2
2002-04-23 07:41:17 51°10.193 2°43.489 269 12.4 266.3 11.2
2002-04-23 07:41:22 51°10.194 2°43.462 272.8 12.4 269.6 11.2
2002-04-23 07:41:27 51°10.197 2°43.435 277.2 12.5 273.1 11.3
2002-04-23 07:41:32 51°10.2 2°43.408 280.8 12.5 278.4 11.3
2002-04-23 07:41:37 51°10.204 2°43.381 284.5 12.5 282.7 10.8
2002-04-23 07:41:42 51°10.21 2°43.354 286.8 12.6 285.2 11.3
2002-04-23 07:41:47 51°10.215 2°43.328 288.7 12.6 287.2 11.3
2002-04-23 07:41:52 51°10.221 2°43.302 289.2 12.6 289 11.2
2002-04-23 07:41:57 51°10.227 2°43.275 288.2 12.7 288.2 11
2002-04-23 07:42:02 51°10.232 2°43.248 287.2 12.7 288.6 11.2
2002-04-23 07:42:07 51°10.236 2°43.221 285.3 12.6 285.8 11.2
2002-04-23 07:42:12 51°10.241 2°43.194 284.5 12.6 284.9 11.2
2002-04-23 07:42:17 51°10.244 2°43.167 282.5 12.6 282.8 11
2002-04-23 07:42:22 51°10.247 2°43.14 280.3 12.6 282.1 11.2
2002-04-23 07:42:27 51°10.249 2°43.112 278 12.6 278.7 11.1
2002-04-23 07:42:32 51°10.251 2°43.085 277.2 12.5 277.3 11.1
2002-04-23 07:42:37 51°10.254 2°43.057 276.7 12.5 277.1 11.1
2002-04-23 07:42:42 51°10.255 2°43.03 277 12.5 276.8 11.1
2002-04-23 07:42:47 51°10.258 2°43.003 278.3 12.5 277.5 11
2002-04-23 07:42:52 51°10.26 2°42.975 278.7 12.6 278.2 10.9
2002-04-23 07:42:57 51°10.263 2°42.948 279.7 12.6 278.5 11
2002-04-23 07:43:02 51°10.265 2°42.92 278.5 12.5 278.3 11
2002-04-23 07:43:07 51°10.266 2°42.893 274.7 12.5 276.1 10.6
2002-04-23 07:43:12 51°10.265 2°42.865 270.2 12.4 272.2 10.8
2002-04-23 07:43:17 51°10.263 2°42.839 265.7 12.3 266.4 10.8
2002-04-23 07:43:22 51°10.26 2°42.812 262.3 12.3 263.1 10.8
2002-04-23 07:43:27 51°10.257 2°42.785 259.3 12.3 260.3 10.9
2002-04-23 07:43:32 51°10.252 2°42.759 257.2 12.3 257.2 10.9
2002-04-23 07:43:37 51°10.247 2°42.733 255.7 12.3 254.8 10.9
2002-04-23 07:43:42 51°10.242 2°42.707 254.7 12.4 253.6 10.9
2002-04-23 07:43:47 51°10.236 2°42.681 253.5 12.4 252.4 10.7
2002-04-23 07:43:52 51°10.231 2°42.655 253.5 12.4 251.6 10.9
2002-04-23 07:43:57 51°10.226 2°42.629 253.3 12.4 251.9 10.7
2002-04-23 07:44:02 51°10.221 2°42.602 254.2 12.5 252.2 10.9
2002-04-23 07:44:07 51°10.216 2°42.576 255.2 12.4 253 10.9
2002-04-23 07:44:12 51°10.211 2°42.549 255.7 12.4 253.5 10.8
2002-04-23 07:44:17 51°10.207 2°42.523 256.8 12.5 255 10.9
2002-04-23 07:44:22 51°10.203 2°42.496 257.5 12.5 255.4 10.9
2002-04-23 07:44:27 51°10.199 2°42.469 258.3 12.5 256.4 10.8
2002-04-23 07:44:32 51°10.195 2°42.442 259.2 12.5 257.5 10.8
2002-04-23 07:44:37 51°10.192 2°42.415 259.5 12.5 257.8 10.7
2002-04-23 07:44:42 51°10.188 2°42.388 260 12.5 258.3 10.7
2002-04-23 07:44:47 51°10.185 2°42.361 260.7 12.5 258.8 10.8
2002-04-23 07:44:52 51°10.182 2°42.334 261 12.5 259 10.8
2002-04-23 07:44:57 51°10.179 2°42.307 260.7 12.5 259.5 10.8
2002-04-23 07:45:02 51°10.176 2°42.28 260.5 12.5 259.4 10.8
2002-04-23 07:45:07 51°10.172 2°42.253 260.2 12.5 259.1 10.8
2002-04-23 07:45:12 51°10.169 2°42.226 260 12.5 258.9 10.8
2002-04-23 07:45:17 51°10.165 2°42.199 259.8 12.5 258.5 10.9
2002-04-23 07:45:22 51°10.162 2°42.172 259.7 12.5 258.4 10.7
2002-04-23 07:45:27 51°10.158 2°42.145 260 12.5 258.4 10.9
2002-04-23 07:45:32 51°10.155 2°42.118 259.8 12.5 258.2 10.9
2002-04-23 07:45:37 51°10.151 2°42.091 259.7 12.5 258.2 10.8
2002-04-23 07:45:42 51°10.148 2°42.064 260 12.5 258.1 10.7
2002-04-23 07:45:47 51°10.144 2°42.037 259.8 12.5 258.1 10.9
2002-04-23 07:45:52 51°10.141 2°42.01 260.3 12.5 258.5 10.9
2002-04-23 07:45:57 51°10.137 2°41.984 260.3 12.4 258.5 10.7
2002-04-23 07:46:02 51°10.134 2°41.957 259.8 12.4 258.7 10.9
2002-04-23 07:46:07 51°10.131 2°41.93 260 12.4 258.3 10.8
2002-04-23 07:46:12 51°10.127 2°41.903 259.8 12.4 258.5 10.8
2002-04-23 07:46:17 51°10.124 2°41.876 259.7 12.4 258.3 10.9
2002-04-23 07:46:22 51°10.12 2°41.849 259.7 12.4 258.1 11
2002-04-23 07:46:27 51°10.117 2°41.822 259.8 12.4 258.2 11
2002-04-23 07:46:32 51°10.113 2°41.795 259.8 12.4 258.1 11
2002-04-23 07:46:37 51°10.11 2°41.769 259.8 12.4 258.2 11.1
2002-04-23 07:46:41 51°10.107 2°41.747 260 12.4 258.2 11.1
2002-04-23 07:46:47 51°10.102 2°41.715 259.7 12.4 258.4 11.1
2002-04-23 07:46:52 51°10.099 2°41.688 260 12.4 258.4 11.1
2002-04-23 07:46:57 51°10.096 2°41.661 260 12.4 258.5 11.1
2002-04-23 07:47:02 51°10.093 2°41.634 260 12.4 258.6 11.1
2002-04-23 07:47:07 51°10.089 2°41.607 260 12.4 258.6 11.1
2002-04-23 07:47:12 51°10.086 2°41.58 260 12.4 258.6 11.2
2002-04-23 07:47:17 51°10.082 2°41.553 259.8 12.4 258.2 11.2
2002-04-23 07:47:22 51°10.079 2°41.527 259.7 12.4 258.5 11.3
2002-04-23 07:47:27 51°10.075 2°41.5 259.8 12.4 258.4 11.2
2002-04-23 07:47:32 51°10.072 2°41.473 259.7 12.4 258.4 11.1
2002-04-23 07:47:37 51°10.068 2°41.446 259.7 12.4 258.5 11.2
2002-04-23 07:47:42 51°10.065 2°41.419 260 12.4 258.5 11.3
2002-04-23 07:47:47 51°10.061 2°41.392 259.8 12.4 258.3 11.3
2002-04-23 07:47:52 51°10.058 2°41.366 260 12.4 258.2 11.3
2002-04-23 07:47:57 51°10.054 2°41.339 259.8 12.4 258.4 11.3
2002-04-23 07:48:02 51°10.051 2°41.312 260 12.4 258.5 11.3
2002-04-23 07:48:07 51°10.047 2°41.285 260.2 12.4 258.4 11.4
2002-04-23 07:48:12 51°10.044 2°41.258 260.2 12.4 258.3 11.5
2002-04-23 07:48:17 51°10.041 2°41.232 259.7 12.4 258.2 11.5
2002-04-23 07:48:22 51°10.037 2°41.205 259.7 12.4 258.2 11.5
2002-04-23 07:48:27 51°10.034 2°41.178 259.7 12.4 257.9 11.5
2002-04-23 07:48:32 51°10.03 2°41.151 259.5 12.4 258 11.5
2002-04-23 07:48:37 51°10.027 2°41.124 259.7 12.4 258.5 11.6
2002-04-23 07:48:42 51°10.023 2°41.098 259.7 12.4 258.5 11.7
2002-04-23 07:48:47 51°10.02 2°41.071 260 12.4 258.5 11.7
2002-04-23 07:48:52 51°10.017 2°41.044 260.2 12.4 258.7 11.7
2002-04-23 07:48:57 51°10.013 2°41.017 260.2 12.4 258.6 11.4
2002-04-23 07:49:02 51°10.01 2°40.99 259.8 12.4 258.8 11.7
2002-04-23 07:49:07 51°10.006 2°40.963 260.2 12.4 258.6 11.7
2002-04-23 07:49:12 51°10.003 2°40.937 259.8 12.4 258.6 11.8
2002-04-23 07:49:17 51°9.999 2°40.91 259.8 12.4 258.5 11.8
2002-04-23 07:49:22 51°9.996 2°40.883 260 12.4 258.7 11.5
2002-04-23 07:49:27 51°9.993 2°40.856 260.2 12.4 258.8 11.9
2002-04-23 07:49:32 51°9.989 2°40.829 260 12.4 258.7 11.9
2002-04-23 07:49:37 51°9.986 2°40.802 259.8 12.4 258.9 11.9
2002-04-23 07:49:42 51°9.983 2°40.776 259.8 12.4 259 12
2002-04-23 07:49:47 51°9.979 2°40.749 259.7 12.4 258.9 11.9
2002-04-23 07:49:52 51°9.976 2°40.722 260 12.4 258.8 12
2002-04-23 07:49:57 51°9.972 2°40.695 259.8 12.4 258.8 12
2002-04-23 07:50:02 51°9.969 2°40.668 259.7 12.4 258.7 12
2002-04-23 07:50:07 51°9.966 2°40.641 259.8 12.4 258.7 12
2002-04-23 07:50:12 51°9.963 2°40.615 259.7 12.4 258.8 12.1
2002-04-23 07:50:17 51°9.959 2°40.588 259.5 12.4 258.5 12.2
2002-04-23 07:50:22 51°9.956 2°40.561 259.7 12.4 258.6 11.9
2002-04-23 07:50:27 51°9.952 2°40.534 259.8 12.4 258.6 12.2
2002-04-23 07:50:32 51°9.949 2°40.507 260 12.4 259 12.3
2002-04-23 07:50:37 51°9.946 2°40.48 259.8 12.4 259 12.2
2002-04-23 07:50:42 51°9.942 2°40.453 260 12.4 258.9 12.1
2002-04-23 07:50:47 51°9.939 2°40.427 260 12.4 258.9 12.2
2002-04-23 07:50:52 51°9.936 2°40.4 260 12.4 258.9 12.4
2002-04-23 07:50:57 51°9.933 2°40.373 259.8 12.4 258.8 12.2
2002-04-23 07:51:02 51°9.929 2°40.346 259.8 12.4 258.9 12.2
2002-04-23 07:51:07 51°9.926 2°40.319 259.5 12.4 258.7 12.4
2002-04-23 07:51:12 51°9.923 2°40.293 259.7 12.4 258.9 12.4
2002-04-23 07:51:17 51°9.919 2°40.266 259.8 12.4 258.8 12.5
2002-04-23 07:51:22 51°9.916 2°40.239 259.8 12.3 258.8 12.2
2002-04-23 07:51:27 51°9.913 2°40.213 259.7 12.3 258.8 12.4
2002-04-23 07:51:32 51°9.909 2°40.186 260 12.3 258.8 12.6
2002-04-23 07:51:37 51°9.906 2°40.159 259.8 12.3 259.2 12.5
2002-04-23 07:51:42 51°9.903 2°40.133 259.8 12.3 258.9 12.6
2002-04-23 07:51:47 51°9.899 2°40.106 259.5 12.3 259 12.6
2002-04-23 07:51:52 51°9.896 2°40.079 259.8 12.3 258.5 12.7
2002-04-23 07:51:57 51°9.893 2°40.053 259.7 12.3 258.6 12.7
2002-04-23 07:52:02 51°9.89 2°40.026 259.7 12.3 258.6 12.7
2002-04-23 07:52:07 51°9.886 2°39.999 259.5 12.3 258.7 12.6
2002-04-23 07:52:12 51°9.883 2°39.972 259.8 12.3 258.8 12.7
2002-04-23 07:52:17 51°9.879 2°39.946 260.2 12.3 258.6 12.7
2002-04-23 07:52:22 51°9.876 2°39.919 260.2 12.3 258.9 12.7
2002-04-23 07:52:27 51°9.873 2°39.892 260.2 12.3 258.9 12.8
2002-04-23 07:52:32 51°9.87 2°39.866 260 12.4 259 12.8
2002-04-23 07:52:37 51°9.866 2°39.839 260.2 12.4 258.8 12.8
2002-04-23 07:52:42 51°9.863 2°39.812 259.8 12.4 258.6 12.8
2002-04-23 07:52:47 51°9.86 2°39.786 259.7 12.3 258.7 12.6
2002-04-23 07:52:52 51°9.857 2°39.759 259.8 12.3 259 12.8
2002-04-23 07:52:57 51°9.854 2°39.732 260 12.3 259.1 12.8
2002-04-23 07:53:02 51°9.85 2°39.705 260 12.3 259 12.9
2002-04-23 07:53:07 51°9.847 2°39.679 259.7 12.3 258.8 12.6
2002-04-23 07:53:12 51°9.843 2°39.652 260 12.3 258.6 12.7
2002-04-23 07:53:17 51°9.84 2°39.625 260 12.3 258.6 12.9
2002-04-23 07:53:22 51°9.837 2°39.599 259.8 12.4 258.8 13
2002-04-23 07:53:27 51°9.833 2°39.572 259.8 12.4 258.8 13
2002-04-23 07:53:32 51°9.83 2°39.545 259.7 12.4 258.8 12.8
2002-04-23 07:53:37 51°9.827 2°39.518 259.8 12.4 258.8 12.9
2002-04-23 07:53:42 51°9.823 2°39.492 259.8 12.4 258.7 12.8
2002-04-23 07:53:47 51°9.82 2°39.465 259.8 12.4 258.8 12.8
2002-04-23 07:53:52 51°9.816 2°39.438 260.2 12.4 258.7 12.7
2002-04-23 07:53:57 51°9.813 2°39.411 260 12.4 258.6 12.9
2002-04-23 07:54:02 51°9.81 2°39.385 260 12.4 258.6 12.8
2002-04-23 07:54:07 51°9.806 2°39.358 259.7 12.4 258.6 12.9
2002-04-23 07:54:12 51°9.803 2°39.331 259.8 12.4 258.3 13
2002-04-23 07:54:17 51°9.799 2°39.304 259.7 12.3 258.3 13
2002-04-23 07:54:22 51°9.795 2°39.278 259.8 12.4 257.9 13.1
2002-04-23 07:54:27 51°9.792 2°39.251 259.7 12.4 258.1 13.4
2002-04-23 07:54:32 51°9.789 2°39.224 260 12.4 258.6 12.3
2002-04-23 07:54:37 51°9.785 2°39.197 260 12.4 258.7 13.2
2002-04-23 07:54:42 51°9.782 2°39.17 260.2 12.4 258.8 13.2
2002-04-23 07:54:47 51°9.779 2°39.144 260 12.4 258.1 13.2
2002-04-23 07:54:52 51°9.775 2°39.117 259.8 12.4 258.6 13.4
2002-04-23 07:54:57 51°9.772 2°39.09 259.8 12.4 258.6 13.4
2002-04-23 07:55:02 51°9.769 2°39.063 260 12.4 258.6 13.5
2002-04-23 07:55:07 51°9.765 2°39.036 259.8 12.4 259 13.5
2002-04-23 07:55:12 51°9.762 2°39.009 259.7 12.4 258.5 13.4
2002-04-23 07:55:17 51°9.758 2°38.983 259.7 12.4 258.6 13.7
2002-04-23 07:55:22 51°9.754 2°38.956 259.7 12.4 258.1 13.7
2002-04-23 07:55:27 51°9.751 2°38.929 259.5 12.4 258.4 13.7
2002-04-23 07:55:32 51°9.747 2°38.902 259.7 12.4 258.1 13.7
2002-04-23 07:55:37 51°9.744 2°38.875 259.7 12.4 258.3 13.7
2002-04-23 07:55:42 51°9.74 2°38.849 259.8 12.4 258.2 13.8
2002-04-23 07:55:47 51°9.737 2°38.822 260.5 12.4 258.3 13.8
2002-04-23 07:55:52 51°9.733 2°38.795 260.2 12.4 258.7 13.7
2002-04-23 07:55:57 51°9.73 2°38.768 260 12.4 258.4 13.9
2002-04-23 07:56:02 51°9.726 2°38.741 260 12.4 258.6 14
2002-04-23 07:56:07 51°9.723 2°38.714 260.2 12.4 258.2 14
2002-04-23 07:56:12 51°9.72 2°38.688 260.2 12.4 258.5 13.7
2002-04-23 07:56:17 51°9.716 2°38.661 259.8 12.4 258.5 14
2002-04-23 07:56:22 51°9.713 2°38.634 260 12.4 258.2 13.6
2002-04-23 07:56:27 51°9.709 2°38.607 259.5 12.4 258.2 13.8
2002-04-23 07:56:32 51°9.706 2°38.58 259.5 12.4 258 13.8
2002-04-23 07:56:37 51°9.702 2°38.553 259.8 12.4 258 13.8
2002-04-23 07:56:42 51°9.699 2°38.527 260 12.4 258.2 13.9
2002-04-23 07:56:47 51°9.695 2°38.5 259.8 12.4 258.3 14.1
2002-04-23 07:56:52 51°9.692 2°38.473 260 12.4 258.4 13.9
2002-04-23 07:56:57 51°9.688 2°38.446 259.7 12.4 258.3 14.1
2002-04-23 07:57:02 51°9.685 2°38.419 259.8 12.4 258.1 14.3
2002-04-23 07:57:07 51°9.681 2°38.392 259.8 12.5 258 13.8
2002-04-23 07:57:12 51°9.678 2°38.365 259.8 12.5 258.5 14.4
2002-04-23 07:57:17 51°9.674 2°38.339 259.8 12.5 258.3 14.4
2002-04-23 07:57:22 51°9.671 2°38.312 259.8 12.4 258.5 14.5
2002-04-23 07:57:27 51°9.667 2°38.285 259.8 12.4 258.4 14.3
2002-04-23 07:57:32 51°9.664 2°38.258 259.8 12.4 258.3 14.7
2002-04-23 07:57:37 51°9.66 2°38.231 259.7 12.4 258.1 14.8
2002-04-23 07:57:42 51°9.657 2°38.204 260.2 12.4 258 14.6
2002-04-23 07:57:47 51°9.653 2°38.177 259.7 12.4 258.3 14.7
2002-04-23 07:57:52 51°9.65 2°38.15 259.7 12.4 258.2 15
2002-04-23 07:57:57 51°9.646 2°38.124 260 12.4 258.6 14.9
2002-04-23 07:58:02 51°9.643 2°38.097 260 12.4 258.4 14.8
2002-04-23 07:58:07 51°9.639 2°38.07 260.3 12.5 258.2 15
2002-04-23 07:58:12 51°9.636 2°38.043 259.8 12.5 258 15.2
2002-04-23 07:58:17 51°9.632 2°38.016 259.8 12.5 257.9 15.3
2002-04-23 07:58:22 51°9.629 2°37.989 259.7 12.5 258.1 15.2
2002-04-23 07:58:27 51°9.625 2°37.962 259.8 12.5 258.1 15.5
2002-04-23 07:58:32 51°9.622 2°37.935 259.7 12.4 258.4 15.5
2002-04-23 07:58:37 51°9.618 2°37.908 259.5 12.4 258.4 15.5
2002-04-23 07:58:42 51°9.615 2°37.881 259.7 12.4 258.6 15.3
2002-04-23 07:58:47 51°9.611 2°37.855 259.7 12.5 258.2 15.8
2002-04-23 07:58:51 51°9.609 2°37.833 259.8 12.4 258.5 15.7
2002-04-23 07:58:57 51°9.604 2°37.801 259.5 12.4 257.9 16
2002-04-23 07:59:02 51°9.601 2°37.774 259.8 12.4 258.5 16
2002-04-23 07:59:07 51°9.597 2°37.747 260.2 12.4 258.6 16
2002-04-23 07:59:12 51°9.594 2°37.72 260.2 12.4 258.8 16.1
2002-04-23 07:59:17 51°9.591 2°37.694 260 12.4 258.6 16.2
2002-04-23 07:59:22 51°9.588 2°37.667 260.2 12.4 258.6 16.2
2002-04-23 07:59:27 51°9.584 2°37.64 259.8 12.4 258.9 16.3
2002-04-23 07:59:32 51°9.581 2°37.613 259.8 12.4 258.4 15.8
2002-04-23 07:59:37 51°9.577 2°37.586 259.8 12.4 258.7 16.5
2002-04-23 07:59:42 51°9.573 2°37.559 260 12.4 258.2 16.5
2002-04-23 07:59:47 51°9.57 2°37.532 260 12.4 258.3 16.6
2002-04-23 07:59:52 51°9.567 2°37.506 260 12.4 258.1 16.7
2002-04-23 07:59:57 51°9.563 2°37.479 259.8 12.4 258.4 16.7
2002-04-23 08:00:02 51°9.56 2°37.452 259.8 12.4 258.7 17
2002-04-23 08:00:07 51°9.557 2°37.425 259.7 12.4 258.5 17.1
2002-04-23 08:00:12 51°9.553 2°37.399 259.5 12.4 258.5 17.2
2002-04-23 08:00:17 51°9.55 2°37.372 259.5 12.4 258.5 17.3
2002-04-23 08:00:22 51°9.546 2°37.345 259.5 12.4 258.4 17.4
2002-04-23 08:00:27 51°9.543 2°37.318 260 12.4 258.6 17.5
2002-04-23 08:00:32 51°9.54 2°37.291 260.2 12.4 258.8 17.6
2002-04-23 08:00:37 51°9.537 2°37.265 260.8 12.4 259.3 17.6
2002-04-23 08:00:42 51°9.534 2°37.237 261.8 12.4 260.2 17.6
2002-04-23 08:00:47 51°9.532 2°37.21 263.5 12.4 261.7 17.9
2002-04-23 08:00:52 51°9.53 2°37.183 264.2 12.4 263.6 17.9
2002-04-23 08:00:57 51°9.529 2°37.156 265.2 12.4 264.4 17.9
2002-04-23 08:01:02 51°9.527 2°37.128 265.7 12.4 265.2 18.1
2002-04-23 08:01:07 51°9.526 2°37.101 266.3 12.4 265.6 18.2
2002-04-23 08:01:12 51°9.525 2°37.074 266.8 12.4 265.8 18.1
2002-04-23 08:01:17 51°9.524 2°37.047 266.3 12.4 266.2 18.2
2002-04-23 08:01:22 51°9.523 2°37.02 265.8 12.4 265.6 18.3
2002-04-23 08:01:27 51°9.521 2°36.992 265.5 12.4 265.3 18.2
2002-04-23 08:01:32 51°9.52 2°36.965 265.5 12.4 265 18.2
2002-04-23 08:01:37 51°9.518 2°36.938 265.3 12.4 265.1 18.2
2002-04-23 08:01:42 51°9.517 2°36.911 265.5 12.4 264.8 18.3
2002-04-23 08:01:47 51°9.515 2°36.883 265.3 12.4 264.7 18.2
2002-04-23 08:01:52 51°9.514 2°36.856 265.2 12.4 264.7 18.2
2002-04-23 08:01:57 51°9.512 2°36.829 265.2 12.4 264.6 18.2
2002-04-23 08:02:02 51°9.51 2°36.802 265 12.4 264.7 18.2
2002-04-23 08:02:07 51°9.509 2°36.774 265 12.4 264.7 18.2
2002-04-23 08:02:12 51°9.507 2°36.747 265 12.4 264.7 18.1
2002-04-23 08:02:17 51°9.506 2°36.72 265.2 12.4 264.6 18.1
2002-04-23 08:02:22 51°9.504 2°36.693 265 12.4 264.3 17.9
2002-04-23 08:02:27 51°9.502 2°36.666 264.8 12.3 264.3 18.1
2002-04-23 08:02:32 51°9.501 2°36.639 264.8 12.3 264.2 18.1
2002-04-23 08:02:37 51°9.499 2°36.612 265 12.3 264.6 18
2002-04-23 08:02:42 51°9.497 2°36.585 265 12.3 264.5 18.3
2002-04-23 08:02:47 51°9.496 2°36.558 265.2 12.3 264.9 18
2002-04-23 08:02:52 51°9.494 2°36.531 264.8 12.3 264.5 18
2002-04-23 08:02:57 51°9.493 2°36.503 265.2 12.3 264.7 18.6
2002-04-23 08:03:02 51°9.491 2°36.476 265.2 12.3 264.8 18.7
2002-04-23 08:03:07 51°9.489 2°36.449 264.7 12.3 264.7 18.3
2002-04-23 08:03:12 51°9.488 2°36.422 264.8 12.3 264.4 18.4
2002-04-23 08:03:17 51°9.486 2°36.395 264.7 12.3 264.2 18.9
2002-04-23 08:03:22 51°9.484 2°36.368 264.5 12.3 264 19
2002-04-23 08:03:27 51°9.483 2°36.341 264.7 12.3 264.1 19
2002-04-23 08:03:32 51°9.481 2°36.314 264.5 12.3 264.2 18.8
2002-04-23 08:03:37 51°9.479 2°36.287 264.8 12.3 264.2 19.1
2002-04-23 08:03:42 51°9.478 2°36.26 264.8 12.3 264.1 18.9
2002-04-23 08:03:47 51°9.476 2°36.233 264.7 12.3 264.6 18.8
2002-04-23 08:03:52 51°9.474 2°36.206 264.8 12.3 264.1 18.8
2002-04-23 08:03:57 51°9.473 2°36.179 265 12.3 264.4 19
2002-04-23 08:04:02 51°9.471 2°36.152 264.7 12.2 264.4 18.6
2002-04-23 08:04:07 51°9.47 2°36.125 264.3 12.3 264.6 19
2002-04-23 08:04:12 51°9.468 2°36.098 264.7 12.3 264.4 18.7
2002-04-23 08:04:17 51°9.466 2°36.071 265.2 12.3 264.6 18.5
2002-04-23 08:04:22 51°9.465 2°36.044 265.3 12.3 264.7 18.7
2002-04-23 08:04:27 51°9.463 2°36.018 265.2 12.3 265.1 18.7
2002-04-23 08:04:32 51°9.462 2°35.99 265 12.3 264.8 18.7
2002-04-23 08:04:37 51°9.46 2°35.964 264.8 12.3 264.7 19.2
2002-04-23 08:04:42 51°9.459 2°35.936 265.2 12.3 264.6 18.6
2002-04-23 08:04:47 51°9.457 2°35.91 265 12.3 264.9 19.1
2002-04-23 08:04:52 51°9.456 2°35.882 266.2 12.3 265.5 19.3
2002-04-23 08:04:57 51°9.455 2°35.855 267.7 12.3 266.8 18.7
2002-04-23 08:05:02 51°9.455 2°35.828 268.8 12.3 268.9 19
2002-04-23 08:05:07 51°9.456 2°35.801 271 12.3 270.2 19.4
2002-04-23 08:05:12 51°9.457 2°35.774 272.5 12.3 272.4 19.4
2002-04-23 08:05:17 51°9.458 2°35.746 273.7 12.3 273.4 19.5
2002-04-23 08:05:22 51°9.46 2°35.719 274.8 12.4 275.2 19.1
2002-04-23 08:05:27 51°9.462 2°35.692 276.8 12.4 276.4 19.5
2002-04-23 08:05:32 51°9.465 2°35.665 279.7 12.4 278.2 19.7
2002-04-23 08:05:37 51°9.469 2°35.639 282 12.4 281.2 19.4
2002-04-23 08:05:42 51°9.474 2°35.612 284 12.4 283.6 19.2
2002-04-23 08:05:47 51°9.479 2°35.586 285.8 12.5 285.7 19.8
2002-04-23 08:05:52 51°9.485 2°35.559 287.2 12.5 287.4 20.1
2002-04-23 08:05:57 51°9.491 2°35.533 288.3 12.5 288.5 19.7
2002-04-23 08:06:02 51°9.497 2°35.507 288.8 12.6 290.1 20.3
2002-04-23 08:06:07 51°9.503 2°35.481 289.2 12.6 290.3 20.1
2002-04-23 08:06:12 51°9.509 2°35.455 289.3 12.6 290.5 19.9
2002-04-23 08:06:17 51°9.515 2°35.429 288.7 12.6 290.3 20.1
2002-04-23 08:06:22 51°9.521 2°35.403 288.8 12.6 289.8 20.6
2002-04-23 08:06:27 51°9.527 2°35.376 288 12.6 289.6 20.4
2002-04-23 08:06:32 51°9.533 2°35.35 289 12.6 290.4 20.6
2002-04-23 08:06:37 51°9.539 2°35.324 289.5 12.6 290.7 20.7
2002-04-23 08:06:42 51°9.546 2°35.299 290.5 12.7 291.2 20.9
2002-04-23 08:06:47 51°9.553 2°35.273 291.7 12.7 292.8 20.9
2002-04-23 08:06:52 51°9.561 2°35.248 292.8 12.7 294.4 21
2002-04-23 08:06:57 51°9.568 2°35.222 293.3 12.7 295.2 21
2002-04-23 08:07:02 51°9.577 2°35.198 296 12.7 296.5 21.1
2002-04-23 08:07:07 51°9.586 2°35.174 298.2 12.7 299.2 21.3
2002-04-23 08:07:12 51°9.596 2°35.15 299.8 12.8 300.1 21.3
2002-04-23 08:07:17 51°9.605 2°35.126 301.3 12.8 303 21.5
2002-04-23 08:07:22 51°9.616 2°35.103 302.5 12.8 303.2 21.4
2002-04-23 08:07:27 51°9.626 2°35.08 303.5 12.8 305.1 21.5
2002-04-23 08:07:32 51°9.636 2°35.057 303.5 12.8 304.9 21.7
2002-04-23 08:07:37 51°9.647 2°35.034 304.2 12.9 306.6 21.7
2002-04-23 08:07:42 51°9.657 2°35.01 303.7 12.9 305.2 21.7
2002-04-23 08:07:47 51°9.668 2°34.988 304.2 12.9 306.1 21.4
2002-04-23 08:07:52 51°9.678 2°34.964 303.2 12.9 304.9 21.2
2002-04-23 08:07:57 51°9.689 2°34.942 304.2 12.9 306.6 21
2002-04-23 08:08:02 51°9.698 2°34.918 302.3 12.9 304.9 20.8
2002-04-23 08:08:07 51°9.71 2°34.896 303.5 12.9 306.1 20.4
2002-04-23 08:08:12 51°9.718 2°34.871 301.2 12.8 303.9 20.3
2002-04-23 08:08:17 51°9.73 2°34.849 303.2 12.9 305 20
2002-04-23 08:08:22 51°9.738 2°34.824 300.5 12.9 304.1 19.2
2002-04-23 08:08:27 51°9.749 2°34.802 302.3 12.8 304.2 18.5
2002-04-23 08:08:32 51°9.758 2°34.777 301.2 12.9 303.9 18.6
2002-04-23 08:08:37 51°9.77 2°34.755 304.3 12.9 305.3 17.1
2002-04-23 08:08:41 51°9.777 2°34.736 303.2 12.9 306 16.5
2002-04-23 08:08:47 51°9.791 2°34.71 306.2 12.9 307 16.3
2002-04-23 08:08:52 51°9.802 2°34.687 305.3 12.9 307.8 15.5